sensor_id;sensor_type;location;lat;lon;timestamp;temperature;humidity
53268;DHT22;39156;51.176;6.738;2023-04-29T00:01:25;12.70;73.40
53268;DHT22;39156;51.176;6.738;2023-04-29T00:03:51;12.60;73.40
53268;DHT22;39156;51.176;6.738;2023-04-29T00:06:17;12.70;73.50
53268;DHT22;39156;51.176;6.738;2023-04-29T00:08:43;12.60;73.50
53268;DHT22;39156;51.176;6.738;2023-04-29T00:11:09;12.60;73.60
53268;DHT22;39156;51.176;6.738;2023-04-29T00:13:36;12.60;73.60
53268;DHT22;39156;51.176;6.738;2023-04-29T00:16:04;12.70;73.70
53268;DHT22;39156;51.176;6.738;2023-04-29T00:18:30;12.60;73.80
53268;DHT22;39156;51.176;6.738;2023-04-29T00:20:56;12.60;74.40
53268;DHT22;39156;51.176;6.738;2023-04-29T00:23:22;12.60;73.90
53268;DHT22;39156;51.176;6.738;2023-04-29T00:25:48;12.60;74.10
53268;DHT22;39156;51.176;6.738;2023-04-29T00:28:13;12.50;74.30
53268;DHT22;39156;51.176;6.738;2023-04-29T00:30:39;12.60;75.10
53268;DHT22;39156;51.176;6.738;2023-04-29T00:33:05;12.60;74.60
53268;DHT22;39156;51.176;6.738;2023-04-29T00:35:30;12.50;74.40
53268;DHT22;39156;51.176;6.738;2023-04-29T00:37:56;12.50;74.60
53268;DHT22;39156;51.176;6.738;2023-04-29T00:40:22;12.40;74.40
53268;DHT22;39156;51.176;6.738;2023-04-29T00:42:48;12.40;74.30
53268;DHT22;39156;51.176;6.738;2023-04-29T00:45:13;12.40;74.40
53268;DHT22;39156;51.176;6.738;2023-04-29T00:47:39;12.30;74.30
53268;DHT22;39156;51.176;6.738;2023-04-29T00:50:06;12.30;74.40
53268;DHT22;39156;51.176;6.738;2023-04-29T00:52:33;12.30;74.40
53268;DHT22;39156;51.176;6.738;2023-04-29T00:54:59;12.20;74.60
53268;DHT22;39156;51.176;6.738;2023-04-29T00:57:25;12.20;74.70
53268;DHT22;39156;51.176;6.738;2023-04-29T00:59:56;12.10;74.70
53268;DHT22;39156;51.176;6.738;2023-04-29T01:02:22;12.10;74.80
53268;DHT22;39156;51.176;6.738;2023-04-29T01:04:49;12.00;75.00
53268;DHT22;39156;51.176;6.738;2023-04-29T01:07:18;12.10;75.30
53268;DHT22;39156;51.176;6.738;2023-04-29T01:09:59;12.00;75.00
53268;DHT22;39156;51.176;6.738;2023-04-29T01:12:33;12.00;75.30
53268;DHT22;39156;51.176;6.738;2023-04-29T01:15:46;11.90;75.30
53268;DHT22;39156;51.176;6.738;2023-04-29T01:18:23;11.90;75.50
53268;DHT22;39156;51.176;6.738;2023-04-29T01:20:51;11.80;75.60
53268;DHT22;39156;51.176;6.738;2023-04-29T01:23:17;11.80;75.40
53268;DHT22;39156;51.176;6.738;2023-04-29T01:25:43;11.80;75.60
53268;DHT22;39156;51.176;6.738;2023-04-29T01:31:07;11.80;75.60
53268;DHT22;39156;51.176;6.738;2023-04-29T01:40:05;11.80;76.20
53268;DHT22;39156;51.176;6.738;2023-04-29T01:43:00;11.80;76.80
53268;DHT22;39156;51.176;6.738;2023-04-29T01:45:27;11.80;76.90
53268;DHT22;39156;51.176;6.738;2023-04-29T01:47:56;11.80;76.50
53268;DHT22;39156;51.176;6.738;2023-04-29T01:50:23;11.80;76.40
53268;DHT22;39156;51.176;6.738;2023-04-29T01:52:48;11.80;76.60
53268;DHT22;39156;51.176;6.738;2023-04-29T01:55:14;11.80;76.70
53268;DHT22;39156;51.176;6.738;2023-04-29T01:57:40;11.70;76.70
53268;DHT22;39156;51.176;6.738;2023-04-29T02:00:06;11.70;76.80
53268;DHT22;39156;51.176;6.738;2023-04-29T02:02:33;11.70;76.90
53268;DHT22;39156;51.176;6.738;2023-04-29T02:04:59;11.80;77.10
53268;DHT22;39156;51.176;6.738;2023-04-29T02:07:25;11.60;77.10
53268;DHT22;39156;51.176;6.738;2023-04-29T02:09:51;11.60;77.20
53268;DHT22;39156;51.176;6.738;2023-04-29T02:12:17;11.60;77.40
53268;DHT22;39156;51.176;6.738;2023-04-29T02:14:42;11.60;77.30
53268;DHT22;39156;51.176;6.738;2023-04-29T02:17:08;11.60;76.90
53268;DHT22;39156;51.176;6.738;2023-04-29T02:19:34;11.60;76.80
53268;DHT22;39156;51.176;6.738;2023-04-29T02:22:00;11.50;76.70
53268;DHT22;39156;51.176;6.738;2023-04-29T02:24:25;11.40;76.80
53268;DHT22;39156;51.176;6.738;2023-04-29T02:26:51;11.40;77.10
53268;DHT22;39156;51.176;6.738;2023-04-29T02:29:17;11.30;76.90
53268;DHT22;39156;51.176;6.738;2023-04-29T02:31:43;11.20;77.00
53268;DHT22;39156;51.176;6.738;2023-04-29T02:34:08;11.20;77.40
53268;DHT22;39156;51.176;6.738;2023-04-29T02:36:34;11.20;77.40
53268;DHT22;39156;51.176;6.738;2023-04-29T02:39:00;11.10;77.40
53268;DHT22;39156;51.176;6.738;2023-04-29T02:41:26;11.10;77.50
53268;DHT22;39156;51.176;6.738;2023-04-29T02:43:51;11.00;77.30
53268;DHT22;39156;51.176;6.738;2023-04-29T02:46:17;11.00;77.20
53268;DHT22;39156;51.176;6.738;2023-04-29T02:48:43;10.90;77.30
53268;DHT22;39156;51.176;6.738;2023-04-29T02:51:09;10.90;77.30
53268;DHT22;39156;51.176;6.738;2023-04-29T02:53:35;10.80;77.40
53268;DHT22;39156;51.176;6.738;2023-04-29T02:56:01;10.80;77.60
53268;DHT22;39156;51.176;6.738;2023-04-29T02:58:26;10.70;77.60
53268;DHT22;39156;51.176;6.738;2023-04-29T03:00:52;10.80;77.50
53268;DHT22;39156;51.176;6.738;2023-04-29T03:03:18;10.80;77.50
53268;DHT22;39156;51.176;6.738;2023-04-29T03:05:43;10.80;77.40
53268;DHT22;39156;51.176;6.738;2023-04-29T03:08:09;10.80;77.50
53268;DHT22;39156;51.176;6.738;2023-04-29T03:10:35;10.80;77.40
53268;DHT22;39156;51.176;6.738;2023-04-29T03:13:01;10.80;77.30
53268;DHT22;39156;51.176;6.738;2023-04-29T03:15:27;10.80;77.70
53268;DHT22;39156;51.176;6.738;2023-04-29T03:17:53;10.80;77.30
53268;DHT22;39156;51.176;6.738;2023-04-29T03:20:20;10.70;77.40
53268;DHT22;39156;51.176;6.738;2023-04-29T03:22:46;10.70;77.80
53268;DHT22;39156;51.176;6.738;2023-04-29T03:25:11;10.60;78.00
53268;DHT22;39156;51.176;6.738;2023-04-29T03:27:37;10.70;78.40
53268;DHT22;39156;51.176;6.738;2023-04-29T03:30:04;10.50;78.40
53268;DHT22;39156;51.176;6.738;2023-04-29T03:32:31;10.60;78.70
53268;DHT22;39156;51.176;6.738;2023-04-29T03:34:56;10.60;79.00
53268;DHT22;39156;51.176;6.738;2023-04-29T03:37:22;10.60;79.00
53268;DHT22;39156;51.176;6.738;2023-04-29T03:39:48;10.50;79.00
53268;DHT22;39156;51.176;6.738;2023-04-29T03:42:13;10.60;79.00
53268;DHT22;39156;51.176;6.738;2023-04-29T03:44:39;10.60;79.20
53268;DHT22;39156;51.176;6.738;2023-04-29T03:47:05;10.60;79.50
53268;DHT22;39156;51.176;6.738;2023-04-29T03:49:31;10.50;79.50
53268;DHT22;39156;51.176;6.738;2023-04-29T03:51:56;10.40;79.50
53268;DHT22;39156;51.176;6.738;2023-04-29T03:54:22;10.50;79.60
53268;DHT22;39156;51.176;6.738;2023-04-29T03:56:48;10.50;79.50
53268;DHT22;39156;51.176;6.738;2023-04-29T03:59:13;10.50;79.60
53268;DHT22;39156;51.176;6.738;2023-04-29T04:01:39;10.40;79.40
53268;DHT22;39156;51.176;6.738;2023-04-29T04:04:05;10.50;79.50
53268;DHT22;39156;51.176;6.738;2023-04-29T04:06:31;10.40;79.60
53268;DHT22;39156;51.176;6.738;2023-04-29T04:08:56;10.50;79.70
53268;DHT22;39156;51.176;6.738;2023-04-29T04:11:22;10.50;79.70
53268;DHT22;39156;51.176;6.738;2023-04-29T04:13:47;10.50;79.70
53268;DHT22;39156;51.176;6.738;2023-04-29T04:16:14;10.50;79.80
53268;DHT22;39156;51.176;6.738;2023-04-29T04:18:40;10.40;79.80
53268;DHT22;39156;51.176;6.738;2023-04-29T04:21:08;10.40;80.00
53268;DHT22;39156;51.176;6.738;2023-04-29T04:23:34;10.40;79.70
53268;DHT22;39156;51.176;6.738;2023-04-29T04:26:00;10.50;79.60
53268;DHT22;39156;51.176;6.738;2023-04-29T04:28:26;10.40;79.70
53268;DHT22;39156;51.176;6.738;2023-04-29T04:30:51;10.50;79.90
53268;DHT22;39156;51.176;6.738;2023-04-29T04:33:17;10.50;79.70
53268;DHT22;39156;51.176;6.738;2023-04-29T04:35:43;10.40;79.60
53268;DHT22;39156;51.176;6.738;2023-04-29T04:38:09;10.50;79.70
53268;DHT22;39156;51.176;6.738;2023-04-29T04:40:36;10.40;79.80
53268;DHT22;39156;51.176;6.738;2023-04-29T04:43:01;10.50;79.90
53268;DHT22;39156;51.176;6.738;2023-04-29T04:45:27;10.50;79.90
53268;DHT22;39156;51.176;6.738;2023-04-29T04:47:54;10.40;79.60
53268;DHT22;39156;51.176;6.738;2023-04-29T04:50:20;10.50;79.60
53268;DHT22;39156;51.176;6.738;2023-04-29T04:52:46;10.50;79.70
53268;DHT22;39156;51.176;6.738;2023-04-29T04:55:11;10.50;79.80
53268;DHT22;39156;51.176;6.738;2023-04-29T04:57:37;10.40;79.80
53268;DHT22;39156;51.176;6.738;2023-04-29T05:00:03;10.50;79.90
53268;DHT22;39156;51.176;6.738;2023-04-29T05:02:29;10.50;79.90
53268;DHT22;39156;51.176;6.738;2023-04-29T05:04:55;10.50;79.70
53268;DHT22;39156;51.176;6.738;2023-04-29T05:07:21;10.50;79.80
53268;DHT22;39156;51.176;6.738;2023-04-29T05:09:47;10.50;79.90
53268;DHT22;39156;51.176;6.738;2023-04-29T05:12:12;10.60;79.80
53268;DHT22;39156;51.176;6.738;2023-04-29T05:14:38;10.50;79.60
53268;DHT22;39156;51.176;6.738;2023-04-29T05:17:04;10.60;79.50
53268;DHT22;39156;51.176;6.738;2023-04-29T05:19:29;10.60;79.40
53268;DHT22;39156;51.176;6.738;2023-04-29T05:21:55;10.50;79.30
53268;DHT22;39156;51.176;6.738;2023-04-29T05:24:21;10.60;79.60
53268;DHT22;39156;51.176;6.738;2023-04-29T05:26:47;10.50;79.80
53268;DHT22;39156;51.176;6.738;2023-04-29T05:29:14;10.40;79.70
53268;DHT22;39156;51.176;6.738;2023-04-29T05:31:40;10.60;79.80
53268;DHT22;39156;51.176;6.738;2023-04-29T05:34:06;10.60;79.80
53268;DHT22;39156;51.176;6.738;2023-04-29T05:36:31;10.50;79.80
53268;DHT22;39156;51.176;6.738;2023-04-29T05:39:09;10.50;79.70
53268;DHT22;39156;51.176;6.738;2023-04-29T05:41:53;10.50;79.70
53268;DHT22;39156;51.176;6.738;2023-04-29T05:44:19;10.70;79.70
53268;DHT22;39156;51.176;6.738;2023-04-29T05:46:44;10.60;79.60
53268;DHT22;39156;51.176;6.738;2023-04-29T05:49:10;10.50;79.50
53268;DHT22;39156;51.176;6.738;2023-04-29T05:51:36;10.40;79.90
53268;DHT22;39156;51.176;6.738;2023-04-29T05:54:02;10.60;80.20
53268;DHT22;39156;51.176;6.738;2023-04-29T05:56:27;10.50;80.40
53268;DHT22;39156;51.176;6.738;2023-04-29T05:58:53;10.50;80.40
53268;DHT22;39156;51.176;6.738;2023-04-29T06:01:19;10.50;80.20
53268;DHT22;39156;51.176;6.738;2023-04-29T06:03:44;10.60;80.70
53268;DHT22;39156;51.176;6.738;2023-04-29T06:06:10;10.70;80.40
53268;DHT22;39156;51.176;6.738;2023-04-29T06:08:36;10.70;80.30
53268;DHT22;39156;51.176;6.738;2023-04-29T06:11:02;10.80;79.90
53268;DHT22;39156;51.176;6.738;2023-04-29T06:13:30;10.80;79.90
53268;DHT22;39156;51.176;6.738;2023-04-29T06:15:56;10.80;79.50
53268;DHT22;39156;51.176;6.738;2023-04-29T06:18:22;10.80;79.30
53268;DHT22;39156;51.176;6.738;2023-04-29T06:20:48;10.90;79.30
53268;DHT22;39156;51.176;6.738;2023-04-29T06:23:14;11.00;79.30
53268;DHT22;39156;51.176;6.738;2023-04-29T06:25:39;11.10;79.40
53268;DHT22;39156;51.176;6.738;2023-04-29T06:28:05;11.00;79.20
53268;DHT22;39156;51.176;6.738;2023-04-29T06:30:32;11.10;78.80
53268;DHT22;39156;51.176;6.738;2023-04-29T06:32:58;11.20;78.80
53268;DHT22;39156;51.176;6.738;2023-04-29T06:35:24;11.20;78.50
53268;DHT22;39156;51.176;6.738;2023-04-29T06:37:50;11.20;78.20
53268;DHT22;39156;51.176;6.738;2023-04-29T06:40:17;11.30;78.30
53268;DHT22;39156;51.176;6.738;2023-04-29T06:42:42;11.20;78.20
53268;DHT22;39156;51.176;6.738;2023-04-29T06:45:08;11.30;77.90
53268;DHT22;39156;51.176;6.738;2023-04-29T06:47:34;11.20;77.90
53268;DHT22;39156;51.176;6.738;2023-04-29T06:50:00;11.20;77.90
53268;DHT22;39156;51.176;6.738;2023-04-29T06:52:26;11.20;77.70
53268;DHT22;39156;51.176;6.738;2023-04-29T06:54:52;11.20;77.50
53268;DHT22;39156;51.176;6.738;2023-04-29T06:57:17;11.20;76.90
53268;DHT22;39156;51.176;6.738;2023-04-29T06:59:43;11.10;77.00
53268;DHT22;39156;51.176;6.738;2023-04-29T07:02:09;11.00;77.10
53268;DHT22;39156;51.176;6.738;2023-04-29T07:04:34;10.90;76.90
53268;DHT22;39156;51.176;6.738;2023-04-29T07:07:01;10.90;77.30
53268;DHT22;39156;51.176;6.738;2023-04-29T07:09:28;10.80;77.40
53268;DHT22;39156;51.176;6.738;2023-04-29T07:11:54;10.70;77.40
53268;DHT22;39156;51.176;6.738;2023-04-29T07:14:19;10.70;77.60
53268;DHT22;39156;51.176;6.738;2023-04-29T07:16:47;10.70;78.00
53268;DHT22;39156;51.176;6.738;2023-04-29T07:19:15;10.70;78.10
53268;DHT22;39156;51.176;6.738;2023-04-29T07:21:41;10.60;78.00
53268;DHT22;39156;51.176;6.738;2023-04-29T07:24:07;10.60;77.90
53268;DHT22;39156;51.176;6.738;2023-04-29T07:26:32;10.50;78.20
53268;DHT22;39156;51.176;6.738;2023-04-29T07:28:58;10.50;78.60
53268;DHT22;39156;51.176;6.738;2023-04-29T07:31:24;10.60;78.50
53268;DHT22;39156;51.176;6.738;2023-04-29T07:33:49;10.50;78.40
53268;DHT22;39156;51.176;6.738;2023-04-29T07:36:15;10.60;78.40
53268;DHT22;39156;51.176;6.738;2023-04-29T07:38:41;10.70;78.60
53268;DHT22;39156;51.176;6.738;2023-04-29T07:41:06;10.70;78.30
53268;DHT22;39156;51.176;6.738;2023-04-29T07:43:32;10.70;78.20
53268;DHT22;39156;51.176;6.738;2023-04-29T07:45:58;10.70;77.90
53268;DHT22;39156;51.176;6.738;2023-04-29T07:48:24;10.80;77.80
53268;DHT22;39156;51.176;6.738;2023-04-29T07:50:49;10.90;77.30
53268;DHT22;39156;51.176;6.738;2023-04-29T07:53:15;10.90;77.00
53268;DHT22;39156;51.176;6.738;2023-04-29T07:55:42;10.90;77.10
53268;DHT22;39156;51.176;6.738;2023-04-29T07:58:08;10.90;77.00
53268;DHT22;39156;51.176;6.738;2023-04-29T08:00:34;11.00;77.00
53268;DHT22;39156;51.176;6.738;2023-04-29T08:03:00;11.00;76.60
53268;DHT22;39156;51.176;6.738;2023-04-29T08:05:26;11.00;76.60
53268;DHT22;39156;51.176;6.738;2023-04-29T08:07:52;11.10;76.70
53268;DHT22;39156;51.176;6.738;2023-04-29T08:10:18;11.10;76.60
53268;DHT22;39156;51.176;6.738;2023-04-29T08:12:55;11.10;76.50
53268;DHT22;39156;51.176;6.738;2023-04-29T08:15:27;11.10;76.50
53268;DHT22;39156;51.176;6.738;2023-04-29T08:17:52;11.20;76.10
53268;DHT22;39156;51.176;6.738;2023-04-29T08:20:18;11.20;76.10
53268;DHT22;39156;51.176;6.738;2023-04-29T08:22:44;11.20;76.10
53268;DHT22;39156;51.176;6.738;2023-04-29T08:25:10;11.20;76.10
53268;DHT22;39156;51.176;6.738;2023-04-29T08:27:35;11.20;76.10
53268;DHT22;39156;51.176;6.738;2023-04-29T08:30:01;11.20;76.40
53268;DHT22;39156;51.176;6.738;2023-04-29T08:32:27;11.30;76.20
53268;DHT22;39156;51.176;6.738;2023-04-29T08:34:52;11.50;76.10
53268;DHT22;39156;51.176;6.738;2023-04-29T08:37:18;11.40;75.70
53268;DHT22;39156;51.176;6.738;2023-04-29T08:39:44;11.50;76.00
53268;DHT22;39156;51.176;6.738;2023-04-29T08:42:13;11.50;75.20
53268;DHT22;39156;51.176;6.738;2023-04-29T08:44:42;11.70;75.00
53268;DHT22;39156;51.176;6.738;2023-04-29T08:47:08;11.60;74.60
53268;DHT22;39156;51.176;6.738;2023-04-29T08:49:34;11.80;74.70
53268;DHT22;39156;51.176;6.738;2023-04-29T08:52:02;11.70;74.70
53268;DHT22;39156;51.176;6.738;2023-04-29T08:54:30;11.70;74.70
53268;DHT22;39156;51.176;6.738;2023-04-29T08:56:57;11.60;74.50
53268;DHT22;39156;51.176;6.738;2023-04-29T08:59:25;11.70;74.20
53268;DHT22;39156;51.176;6.738;2023-04-29T09:01:53;11.70;74.30
53268;DHT22;39156;51.176;6.738;2023-04-29T09:04:44;11.60;74.30
53268;DHT22;39156;51.176;6.738;2023-04-29T09:07:12;11.50;74.10
53268;DHT22;39156;51.176;6.738;2023-04-29T09:09:41;11.60;74.50
53268;DHT22;39156;51.176;6.738;2023-04-29T09:12:07;11.50;74.50
53268;DHT22;39156;51.176;6.738;2023-04-29T09:14:34;11.50;74.40
53268;DHT22;39156;51.176;6.738;2023-04-29T09:17:00;11.50;74.40
53268;DHT22;39156;51.176;6.738;2023-04-29T09:19:34;11.50;74.40
53268;DHT22;39156;51.176;6.738;2023-04-29T09:22:01;11.40;74.60
53268;DHT22;39156;51.176;6.738;2023-04-29T09:24:29;11.40;74.30
53268;DHT22;39156;51.176;6.738;2023-04-29T09:26:56;11.40;74.40
53268;DHT22;39156;51.176;6.738;2023-04-29T09:29:23;11.30;74.60
53268;DHT22;39156;51.176;6.738;2023-04-29T09:31:49;11.20;74.70
53268;DHT22;39156;51.176;6.738;2023-04-29T09:34:16;11.20;74.90
53268;DHT22;39156;51.176;6.738;2023-04-29T09:36:45;11.10;75.20
53268;DHT22;39156;51.176;6.738;2023-04-29T09:39:20;11.10;75.60
53268;DHT22;39156;51.176;6.738;2023-04-29T09:44:40;11.00;76.00
53268;DHT22;39156;51.176;6.738;2023-04-29T09:47:08;10.90;75.80
53268;DHT22;39156;51.176;6.738;2023-04-29T09:49:37;11.00;76.10
53268;DHT22;39156;51.176;6.738;2023-04-29T09:52:11;11.00;76.20
53268;DHT22;39156;51.176;6.738;2023-04-29T09:54:39;10.90;76.20
53268;DHT22;39156;51.176;6.738;2023-04-29T09:57:07;10.90;76.30
53268;DHT22;39156;51.176;6.738;2023-04-29T09:59:35;11.00;76.60
53268;DHT22;39156;51.176;6.738;2023-04-29T10:02:23;11.00;76.60
53268;DHT22;39156;51.176;6.738;2023-04-29T10:04:53;11.00;76.40
53268;DHT22;39156;51.176;6.738;2023-04-29T10:07:22;11.10;76.20
53268;DHT22;39156;51.176;6.738;2023-04-29T10:09:50;11.10;76.10
53268;DHT22;39156;51.176;6.738;2023-04-29T10:12:18;11.10;76.10
53268;DHT22;39156;51.176;6.738;2023-04-29T10:15:01;11.10;75.90
53268;DHT22;39156;51.176;6.738;2023-04-29T10:20:36;11.10;76.30
53268;DHT22;39156;51.176;6.738;2023-04-29T10:23:05;11.20;76.10
53268;DHT22;39156;51.176;6.738;2023-04-29T10:25:32;11.20;76.20
53268;DHT22;39156;51.176;6.738;2023-04-29T10:28:02;11.20;76.10
53268;DHT22;39156;51.176;6.738;2023-04-29T10:30:30;11.20;76.10
53268;DHT22;39156;51.176;6.738;2023-04-29T10:32:56;11.20;76.10
53268;DHT22;39156;51.176;6.738;2023-04-29T10:35:24;11.30;76.00
53268;DHT22;39156;51.176;6.738;2023-04-29T10:37:50;11.20;75.90
53268;DHT22;39156;51.176;6.738;2023-04-29T10:40:38;11.20;75.90
53268;DHT22;39156;51.176;6.738;2023-04-29T10:43:05;11.20;76.00
53268;DHT22;39156;51.176;6.738;2023-04-29T10:45:31;11.20;76.00
53268;DHT22;39156;51.176;6.738;2023-04-29T10:53:15;11.30;75.80
53268;DHT22;39156;51.176;6.738;2023-04-29T10:55:42;11.30;75.60
53268;DHT22;39156;51.176;6.738;2023-04-29T11:01:03;11.30;75.90
53268;DHT22;39156;51.176;6.738;2023-04-29T11:09:20;11.40;75.50
53268;DHT22;39156;51.176;6.738;2023-04-29T11:14:34;11.40;75.70
53268;DHT22;39156;51.176;6.738;2023-04-29T11:17:03;11.50;76.00
53268;DHT22;39156;51.176;6.738;2023-04-29T11:19:40;11.50;76.10
53268;DHT22;39156;51.176;6.738;2023-04-29T11:22:12;11.60;76.10
53268;DHT22;39156;51.176;6.738;2023-04-29T11:25:07;11.70;76.50
53268;DHT22;39156;51.176;6.738;2023-04-29T11:27:39;11.80;76.00
53268;DHT22;39156;51.176;6.738;2023-04-29T11:30:08;12.00;76.10
53268;DHT22;39156;51.176;6.738;2023-04-29T11:32:39;12.20;75.80
53268;DHT22;39156;51.176;6.738;2023-04-29T11:35:17;12.30;75.60
53268;DHT22;39156;51.176;6.738;2023-04-29T11:37:45;12.40;74.50
53268;DHT22;39156;51.176;6.738;2023-04-29T11:40:12;12.50;74.10
53268;DHT22;39156;51.176;6.738;2023-04-29T11:42:44;12.60;74.10
53268;DHT22;39156;51.176;6.738;2023-04-29T11:45:11;12.70;74.20
53268;DHT22;39156;51.176;6.738;2023-04-29T11:47:42;12.70;73.50
53268;DHT22;39156;51.176;6.738;2023-04-29T11:50:11;12.80;73.20
53268;DHT22;39156;51.176;6.738;2023-04-29T11:52:40;12.90;73.30
53268;DHT22;39156;51.176;6.738;2023-04-29T11:55:09;12.90;73.30
53268;DHT22;39156;51.176;6.738;2023-04-29T11:57:36;13.00;73.10
53268;DHT22;39156;51.176;6.738;2023-04-29T12:00:03;13.10;73.00
53268;DHT22;39156;51.176;6.738;2023-04-29T12:02:30;13.30;72.60
53268;DHT22;39156;51.176;6.738;2023-04-29T12:04:57;13.40;72.70
53268;DHT22;39156;51.176;6.738;2023-04-29T12:07:26;13.50;72.10
53268;DHT22;39156;51.176;6.738;2023-04-29T12:09:51;13.60;71.60
53268;DHT22;39156;51.176;6.738;2023-04-29T12:12:19;13.80;71.60
53268;DHT22;39156;51.176;6.738;2023-04-29T12:14:45;13.90;71.40
53268;DHT22;39156;51.176;6.738;2023-04-29T12:17:11;14.10;70.80
53268;DHT22;39156;51.176;6.738;2023-04-29T12:19:38;14.10;70.50
53268;DHT22;39156;51.176;6.738;2023-04-29T12:22:04;14.20;70.70
53268;DHT22;39156;51.176;6.738;2023-04-29T12:24:37;14.30;69.90
53268;DHT22;39156;51.176;6.738;2023-04-29T12:27:07;14.40;69.40
53268;DHT22;39156;51.176;6.738;2023-04-29T12:29:35;14.50;69.00
53268;DHT22;39156;51.176;6.738;2023-04-29T12:32:01;14.60;69.20
53268;DHT22;39156;51.176;6.738;2023-04-29T12:34:28;14.60;68.80
53268;DHT22;39156;51.176;6.738;2023-04-29T12:36:58;14.80;69.10
53268;DHT22;39156;51.176;6.738;2023-04-29T12:39:25;14.80;68.50
53268;DHT22;39156;51.176;6.738;2023-04-29T12:41:57;15.00;68.30
53268;DHT22;39156;51.176;6.738;2023-04-29T12:44:23;15.00;67.30
53268;DHT22;39156;51.176;6.738;2023-04-29T12:46:49;15.20;67.90
53268;DHT22;39156;51.176;6.738;2023-04-29T12:49:17;15.30;68.40
53268;DHT22;39156;51.176;6.738;2023-04-29T12:51:44;15.30;67.10
53268;DHT22;39156;51.176;6.738;2023-04-29T12:54:10;15.40;67.00
53268;DHT22;39156;51.176;6.738;2023-04-29T12:56:39;15.50;66.60
53268;DHT22;39156;51.176;6.738;2023-04-29T12:59:05;15.50;66.40
53268;DHT22;39156;51.176;6.738;2023-04-29T13:01:32;15.60;66.50
53268;DHT22;39156;51.176;6.738;2023-04-29T13:03:58;15.70;66.60
53268;DHT22;39156;51.176;6.738;2023-04-29T13:06:23;15.80;65.60
53268;DHT22;39156;51.176;6.738;2023-04-29T13:08:49;16.00;65.80
53268;DHT22;39156;51.176;6.738;2023-04-29T13:11:16;16.10;65.40
53268;DHT22;39156;51.176;6.738;2023-04-29T13:13:42;16.20;67.60
53268;DHT22;39156;51.176;6.738;2023-04-29T13:16:07;16.20;65.50
53268;DHT22;39156;51.176;6.738;2023-04-29T13:18:34;16.30;65.30
53268;DHT22;39156;51.176;6.738;2023-04-29T13:21:00;16.40;65.20
53268;DHT22;39156;51.176;6.738;2023-04-29T13:23:25;16.50;66.80
53268;DHT22;39156;51.176;6.738;2023-04-29T13:25:51;16.50;64.00
53268;DHT22;39156;51.176;6.738;2023-04-29T13:28:17;16.60;63.00
53268;DHT22;39156;51.176;6.738;2023-04-29T13:30:43;16.50;62.60
53268;DHT22;39156;51.176;6.738;2023-04-29T13:33:08;16.50;62.40
53268;DHT22;39156;51.176;6.738;2023-04-29T13:35:34;16.40;62.40
53268;DHT22;39156;51.176;6.738;2023-04-29T13:38:02;16.30;62.50
53268;DHT22;39156;51.176;6.738;2023-04-29T13:40:28;16.10;62.40
53268;DHT22;39156;51.176;6.738;2023-04-29T13:42:54;16.00;62.40
53268;DHT22;39156;51.176;6.738;2023-04-29T13:45:20;15.80;62.60
53268;DHT22;39156;51.176;6.738;2023-04-29T13:47:45;15.70;63.00
53268;DHT22;39156;51.176;6.738;2023-04-29T13:50:11;15.60;63.10
53268;DHT22;39156;51.176;6.738;2023-04-29T13:52:37;15.40;63.10
53268;DHT22;39156;51.176;6.738;2023-04-29T13:55:03;15.30;63.10
53268;DHT22;39156;51.176;6.738;2023-04-29T13:57:29;15.20;62.90
53268;DHT22;39156;51.176;6.738;2023-04-29T13:59:55;15.10;63.20
53268;DHT22;39156;51.176;6.738;2023-04-29T14:02:21;15.00;63.30
53268;DHT22;39156;51.176;6.738;2023-04-29T14:04:46;14.80;63.80
53268;DHT22;39156;51.176;6.738;2023-04-29T14:07:12;14.80;63.80
53268;DHT22;39156;51.176;6.738;2023-04-29T14:09:38;14.70;63.90
53268;DHT22;39156;51.176;6.738;2023-04-29T14:12:05;14.70;64.20
53268;DHT22;39156;51.176;6.738;2023-04-29T14:14:31;14.70;64.40
53268;DHT22;39156;51.176;6.738;2023-04-29T14:16:57;14.60;64.40
53268;DHT22;39156;51.176;6.738;2023-04-29T14:19:22;14.50;64.60
53268;DHT22;39156;51.176;6.738;2023-04-29T14:21:48;14.40;64.70
53268;DHT22;39156;51.176;6.738;2023-04-29T14:24:14;14.40;64.60
53268;DHT22;39156;51.176;6.738;2023-04-29T14:26:40;14.30;64.90
53268;DHT22;39156;51.176;6.738;2023-04-29T14:29:06;14.40;65.20
53268;DHT22;39156;51.176;6.738;2023-04-29T14:31:35;14.30;65.30
53268;DHT22;39156;51.176;6.738;2023-04-29T14:34:04;14.30;65.20
53268;DHT22;39156;51.176;6.738;2023-04-29T14:36:30;14.30;65.50
53268;DHT22;39156;51.176;6.738;2023-04-29T14:38:59;14.30;65.40
53268;DHT22;39156;51.176;6.738;2023-04-29T14:41:25;14.30;65.40
53268;DHT22;39156;51.176;6.738;2023-04-29T14:43:52;14.30;65.40
53268;DHT22;39156;51.176;6.738;2023-04-29T14:46:18;14.30;65.20
53268;DHT22;39156;51.176;6.738;2023-04-29T14:48:44;14.30;65.40
53268;DHT22;39156;51.176;6.738;2023-04-29T14:51:10;14.30;65.60
53268;DHT22;39156;51.176;6.738;2023-04-29T14:53:36;14.40;65.60
53268;DHT22;39156;51.176;6.738;2023-04-29T14:56:01;14.40;65.20
53268;DHT22;39156;51.176;6.738;2023-04-29T14:58:28;14.40;65.30
53268;DHT22;39156;51.176;6.738;2023-04-29T15:00:54;14.50;65.60
53268;DHT22;39156;51.176;6.738;2023-04-29T15:03:20;14.60;65.50
53268;DHT22;39156;51.176;6.738;2023-04-29T15:05:47;14.60;64.70
53268;DHT22;39156;51.176;6.738;2023-04-29T15:08:15;14.60;64.80
53268;DHT22;39156;51.176;6.738;2023-04-29T15:10:41;14.70;64.50
53268;DHT22;39156;51.176;6.738;2023-04-29T15:13:08;14.70;65.40
53268;DHT22;39156;51.176;6.738;2023-04-29T15:15:34;14.80;64.80
53268;DHT22;39156;51.176;6.738;2023-04-29T15:18:00;14.80;63.90
53268;DHT22;39156;51.176;6.738;2023-04-29T15:20:26;14.80;64.00
53268;DHT22;39156;51.176;6.738;2023-04-29T15:22:51;14.80;64.00
53268;DHT22;39156;51.176;6.738;2023-04-29T15:25:17;14.90;64.00
53268;DHT22;39156;51.176;6.738;2023-04-29T15:27:43;14.90;63.80
53268;DHT22;39156;51.176;6.738;2023-04-29T15:30:09;14.90;63.80
53268;DHT22;39156;51.176;6.738;2023-04-29T15:32:35;14.90;63.80
53268;DHT22;39156;51.176;6.738;2023-04-29T15:35:02;15.00;63.30
53268;DHT22;39156;51.176;6.738;2023-04-29T15:37:29;15.00;63.30
53268;DHT22;39156;51.176;6.738;2023-04-29T15:39:58;15.10;63.70
53268;DHT22;39156;51.176;6.738;2023-04-29T15:42:25;15.10;63.30
53268;DHT22;39156;51.176;6.738;2023-04-29T15:44:53;15.10;62.60
53268;DHT22;39156;51.176;6.738;2023-04-29T15:47:18;15.10;62.50
53268;DHT22;39156;51.176;6.738;2023-04-29T15:49:46;15.20;62.50
53268;DHT22;39156;51.176;6.738;2023-04-29T15:52:11;15.20;62.20
53268;DHT22;39156;51.176;6.738;2023-04-29T15:54:37;15.20;62.40
53268;DHT22;39156;51.176;6.738;2023-04-29T15:57:03;15.20;61.80
53268;DHT22;39156;51.176;6.738;2023-04-29T15:59:29;15.20;62.20
53268;DHT22;39156;51.176;6.738;2023-04-29T16:01:55;15.20;62.20